sensor_id;sensor_type;location;lat;lon;timestamp;temperature;humidity
29207;DHT22;16247;50.840;4.382;2023-04-03T05:36:18;5.00;99.90
29207;DHT22;16247;50.840;4.382;2023-04-03T05:38:51;5.10;99.90
29207;DHT22;16247;50.840;4.382;2023-04-03T05:41:19;5.00;99.90
29207;DHT22;16247;50.840;4.382;2023-04-03T05:44:08;5.00;99.90
29207;DHT22;16247;50.840;4.382;2023-04-03T05:46:43;5.10;99.90
29207;DHT22;16247;50.840;4.382;2023-04-03T05:49:44;5.10;99.90
29207;DHT22;16247;50.840;4.382;2023-04-03T05:52:36;5.10;99.90
29207;DHT22;16247;50.840;4.382;2023-04-03T05:55:07;5.00;99.90
29207;DHT22;16247;50.840;4.382;2023-04-03T05:57:39;5.10;99.90
29207;DHT22;16247;50.840;4.382;2023-04-03T06:00:16;5.20;99.90
29207;DHT22;16247;50.840;4.382;2023-04-03T06:02:45;5.20;99.90
29207;DHT22;16247;50.840;4.382;2023-04-03T06:05:16;5.20;99.90
29207;DHT22;16247;50.840;4.382;2023-04-03T06:07:43;5.40;99.90
29207;DHT22;16247;50.840;4.382;2023-04-03T06:10:11;5.20;99.90
29207;DHT22;16247;50.840;4.382;2023-04-03T06:12:40;5.20;99.90
29207;DHT22;16247;50.840;4.382;2023-04-03T06:15:08;5.40;99.90
29207;DHT22;16247;50.840;4.382;2023-04-03T06:17:38;5.20;99.90
29207;DHT22;16247;50.840;4.382;2023-04-03T06:20:06;5.30;99.90
29207;DHT22;16247;50.840;4.382;2023-04-03T06:22:34;5.20;99.90
29207;DHT22;16247;50.840;4.382;2023-04-03T06:28:54;5.40;99.90
29207;DHT22;16247;50.840;4.382;2023-04-03T06:31:30;5.40;99.90
29207;DHT22;16247;50.840;4.382;2023-04-03T06:34:23;5.30;99.90
29207;DHT22;16247;50.840;4.382;2023-04-03T06:37:20;5.30;99.90
29207;DHT22;16247;50.840;4.382;2023-04-03T06:40:13;5.50;99.90
29207;DHT22;16247;50.840;4.382;2023-04-03T06:42:55;5.30;99.90
29207;DHT22;16247;50.840;4.382;2023-04-03T06:46:01;5.40;99.90
29207;DHT22;16247;50.840;4.382;2023-04-03T06:48:39;5.60;99.90
29207;DHT22;16247;50.840;4.382;2023-04-03T06:51:47;5.60;99.90
29207;DHT22;16247;50.840;4.382;2023-04-03T06:54:35;5.60;99.90
29207;DHT22;16247;50.840;4.382;2023-04-03T06:57:17;5.70;99.90
29207;DHT22;16247;50.840;4.382;2023-04-03T06:59:47;5.80;99.90
29207;DHT22;16247;50.840;4.382;2023-04-03T07:02:14;5.80;99.90
29207;DHT22;16247;50.840;4.382;2023-04-03T07:05:05;6.00;99.90
29207;DHT22;16247;50.840;4.382;2023-04-03T07:07:55;5.90;99.90
29207;DHT22;16247;50.840;4.382;2023-04-03T07:10:27;5.90;99.90
29207;DHT22;16247;50.840;4.382;2023-04-03T07:12:57;5.90;99.90
29207;DHT22;16247;50.840;4.382;2023-04-03T07:15:28;6.00;99.90
29207;DHT22;16247;50.840;4.382;2023-04-03T07:17:53;6.10;99.90
29207;DHT22;16247;50.840;4.382;2023-04-03T07:20:39;6.10;99.90
29207;DHT22;16247;50.840;4.382;2023-04-03T07:23:25;6.00;99.90
29207;DHT22;16247;50.840;4.382;2023-04-03T07:26:35;5.80;99.90
29207;DHT22;16247;50.840;4.382;2023-04-03T07:29:02;5.90;99.90
29207;DHT22;16247;50.840;4.382;2023-04-03T07:31:31;6.00;99.90
29207;DHT22;16247;50.840;4.382;2023-04-03T07:41:10;6.20;99.90
29207;DHT22;16247;50.840;4.382;2023-04-03T07:46:54;6.40;99.90
29207;DHT22;16247;50.840;4.382;2023-04-03T07:49:56;6.40;99.90
29207;DHT22;16247;50.840;4.382;2023-04-03T07:52:48;6.60;99.90
29207;DHT22;16247;50.840;4.382;2023-04-03T07:58:54;6.90;99.90
29207;DHT22;16247;50.840;4.382;2023-04-03T08:01:50;6.90;99.90
29207;DHT22;16247;50.840;4.382;2023-04-03T08:05:03;6.90;99.90
29207;DHT22;16247;50.840;4.382;2023-04-03T08:10:54;7.40;99.90
29207;DHT22;16247;50.840;4.382;2023-04-03T08:17:26;7.20;99.90
29207;DHT22;16247;50.840;4.382;2023-04-03T08:22:41;7.50;99.90
29207;DHT22;16247;50.840;4.382;2023-04-03T08:31:43;7.70;99.90
29207;DHT22;16247;50.840;4.382;2023-04-03T08:37:08;7.60;99.90
29207;DHT22;16247;50.840;4.382;2023-04-03T08:52:12;7.90;99.90
29207;DHT22;16247;50.840;4.382;2023-04-03T09:06:31;8.30;99.90
29207;DHT22;16247;50.840;4.382;2023-04-03T09:09:38;8.30;99.90
29207;DHT22;16247;50.840;4.382;2023-04-03T09:12:58;8.50;99.90
29207;DHT22;16247;50.840;4.382;2023-04-03T09:19:27;8.50;99.90
29207;DHT22;16247;50.840;4.382;2023-04-03T09:22:43;8.60;99.90
29207;DHT22;16247;50.840;4.382;2023-04-03T09:35:32;9.10;99.90
29207;DHT22;16247;50.840;4.382;2023-04-03T12:01:43;12.30;99.90
29207;DHT22;16247;50.840;4.382;2023-04-03T12:04:24;12.20;99.90
29207;DHT22;16247;50.840;4.382;2023-04-03T12:07:33;12.30;99.90
29207;DHT22;16247;50.840;4.382;2023-04-03T12:10:24;12.40;99.90
29207;DHT22;16247;50.840;4.382;2023-04-03T12:19:55;12.30;99.90
29207;DHT22;16247;50.840;4.382;2023-04-03T12:23:08;12.20;99.90
29207;DHT22;16247;50.840;4.382;2023-04-03T13:41:20;12.70;97.30
29207;DHT22;16247;50.840;4.382;2023-04-03T13:43:46;13.00;99.90
29207;DHT22;16247;50.840;4.382;2023-04-03T13:48:46;13.50;98.40
29207;DHT22;16247;50.840;4.382;2023-04-03T13:54:01;13.40;97.20
29207;DHT22;16247;50.840;4.382;2023-04-03T15:37:59;13.20;93.50
29207;DHT22;16247;50.840;4.382;2023-04-03T15:40:25;13.30;93.40
29207;DHT22;16247;50.840;4.382;2023-04-03T15:42:52;13.40;93.10
29207;DHT22;16247;50.840;4.382;2023-04-03T15:45:21;13.50;92.60
29207;DHT22;16247;50.840;4.382;2023-04-03T15:47:47;13.40;92.90
29207;DHT22;16247;50.840;4.382;2023-04-03T15:50:16;13.50;92.60
29207;DHT22;16247;50.840;4.382;2023-04-03T15:52:44;13.40;92.10
29207;DHT22;16247;50.840;4.382;2023-04-03T15:55:11;13.30;92.50
29207;DHT22;16247;50.840;4.382;2023-04-03T15:57:37;13.30;92.60
29207;DHT22;16247;50.840;4.382;2023-04-03T16:00:05;13.30;93.10
29207;DHT22;16247;50.840;4.382;2023-04-03T16:02:33;13.30;93.30
29207;DHT22;16247;50.840;4.382;2023-04-03T16:05:00;13.30;94.00
29207;DHT22;16247;50.840;4.382;2023-04-03T16:07:26;13.30;94.60
29207;DHT22;16247;50.840;4.382;2023-04-03T16:09:54;13.00;94.90
29207;DHT22;16247;50.840;4.382;2023-04-03T16:12:23;13.00;95.10
29207;DHT22;16247;50.840;4.382;2023-04-03T16:14:51;12.90;95.10
29207;DHT22;16247;50.840;4.382;2023-04-03T16:17:18;13.00;95.10
29207;DHT22;16247;50.840;4.382;2023-04-03T16:19:45;12.70;95.40
29207;DHT22;16247;50.840;4.382;2023-04-03T16:22:14;12.70;95.70
29207;DHT22;16247;50.840;4.382;2023-04-03T16:24:52;12.80;95.70
29207;DHT22;16247;50.840;4.382;2023-04-03T16:27:26;12.80;96.00
29207;DHT22;16247;50.840;4.382;2023-04-03T16:29:57;12.80;96.30
29207;DHT22;16247;50.840;4.382;2023-04-03T16:32:26;12.70;96.50
29207;DHT22;16247;50.840;4.382;2023-04-03T16:37:32;12.90;96.50
29207;DHT22;16247;50.840;4.382;2023-04-03T16:39:57;12.80;96.30
29207;DHT22;16247;50.840;4.382;2023-04-03T16:42:27;12.60;96.70
29207;DHT22;16247;50.840;4.382;2023-04-03T16:45:11;12.60;97.20
29207;DHT22;16247;50.840;4.382;2023-04-03T16:47:36;12.50;97.60
29207;DHT22;16247;50.840;4.382;2023-04-03T16:50:04;12.60;97.70
29207;DHT22;16247;50.840;4.382;2023-04-03T16:52:30;12.50;97.90
29207;DHT22;16247;50.840;4.382;2023-04-03T16:55:13;12.40;98.00
29207;DHT22;16247;50.840;4.382;2023-04-03T16:57:40;12.30;98.10
29207;DHT22;16247;50.840;4.382;2023-04-03T17:00:42;12.40;98.20
29207;DHT22;16247;50.840;4.382;2023-04-03T17:03:08;12.40;98.40
29207;DHT22;16247;50.840;4.382;2023-04-03T17:05:35;12.60;98.40
29207;DHT22;16247;50.840;4.382;2023-04-03T17:08:02;12.40;98.30
29207;DHT22;16247;50.840;4.382;2023-04-03T17:10:28;12.40;98.10
29207;DHT22;16247;50.840;4.382;2023-04-03T17:12:56;12.40;98.40
29207;DHT22;16247;50.840;4.382;2023-04-03T17:15:22;12.50;98.60
29207;DHT22;16247;50.840;4.382;2023-04-03T17:17:51;12.50;98.60
29207;DHT22;16247;50.840;4.382;2023-04-03T17:20:19;12.40;98.90
29207;DHT22;16247;50.840;4.382;2023-04-03T17:22:50;12.50;99.00
29207;DHT22;16247;50.840;4.382;2023-04-03T17:25:17;12.30;99.10
29207;DHT22;16247;50.840;4.382;2023-04-03T17:27:44;12.30;98.80
29207;DHT22;16247;50.840;4.382;2023-04-03T17:30:10;12.20;98.90
29207;DHT22;16247;50.840;4.382;2023-04-03T17:32:39;12.10;98.90
29207;DHT22;16247;50.840;4.382;2023-04-03T17:35:17;12.20;99.20
29207;DHT22;16247;50.840;4.382;2023-04-03T17:37:43;12.30;99.40
29207;DHT22;16247;50.840;4.382;2023-04-03T17:40:09;12.30;99.80
29207;DHT22;16247;50.840;4.382;2023-04-03T17:42:39;12.10;99.90
29207;DHT22;16247;50.840;4.382;2023-04-03T17:45:07;12.10;99.70
29207;DHT22;16247;50.840;4.382;2023-04-03T17:47:40;11.90;99.90
29207;DHT22;16247;50.840;4.382;2023-04-03T17:50:07;11.70;99.90
29207;DHT22;16247;50.840;4.382;2023-04-03T17:52:37;11.70;99.90
29207;DHT22;16247;50.840;4.382;2023-04-03T17:55:03;11.90;99.90
29207;DHT22;16247;50.840;4.382;2023-04-03T17:57:30;11.70;99.90
29207;DHT22;16247;50.840;4.382;2023-04-03T17:59:56;11.60;99.90
29207;DHT22;16247;50.840;4.382;2023-04-03T18:02:22;11.70;99.90
29207;DHT22;16247;50.840;4.382;2023-04-03T18:04:54;11.50;99.90
29207;DHT22;16247;50.840;4.382;2023-04-03T18:07:21;11.50;99.90
29207;DHT22;16247;50.840;4.382;2023-04-03T18:09:49;11.60;99.90
29207;DHT22;16247;50.840;4.382;2023-04-03T18:12:17;11.50;99.90
29207;DHT22;16247;50.840;4.382;2023-04-03T18:14:45;11.30;99.90
29207;DHT22;16247;50.840;4.382;2023-04-03T18:17:20;11.30;99.90
29207;DHT22;16247;50.840;4.382;2023-04-03T18:19:47;11.50;99.90
29207;DHT22;16247;50.840;4.382;2023-04-03T18:22:19;11.60;99.90
29207;DHT22;16247;50.840;4.382;2023-04-03T18:24:49;11.40;99.90
29207;DHT22;16247;50.840;4.382;2023-04-03T18:27:24;11.30;99.90
29207;DHT22;16247;50.840;4.382;2023-04-03T18:30:07;11.30;99.90
29207;DHT22;16247;50.840;4.382;2023-04-03T18:32:35;11.00;99.90
29207;DHT22;16247;50.840;4.382;2023-04-03T18:37:40;10.90;99.90
29207;DHT22;16247;50.840;4.382;2023-04-03T18:40:08;10.80;99.90
29207;DHT22;16247;50.840;4.382;2023-04-03T18:42:43;10.90;99.90
29207;DHT22;16247;50.840;4.382;2023-04-03T18:45:29;10.80;99.90
29207;DHT22;16247;50.840;4.382;2023-04-03T18:48:12;10.80;99.90
29207;DHT22;16247;50.840;4.382;2023-04-03T18:50:42;10.80;99.90
29207;DHT22;16247;50.840;4.382;2023-04-03T18:53:08;10.60;99.90
29207;DHT22;16247;50.840;4.382;2023-04-03T18:55:40;10.60;99.90
29207;DHT22;16247;50.840;4.382;2023-04-03T18:58:09;10.80;99.90
29207;DHT22;16247;50.840;4.382;2023-04-03T19:00:37;10.60;99.90
29207;DHT22;16247;50.840;4.382;2023-04-03T19:06:12;10.50;99.90
29207;DHT22;16247;50.840;4.382;2023-04-03T19:12:03;10.40;99.90
29207;DHT22;16247;50.840;4.382;2023-04-03T19:14:33;10.30;99.90
29207;DHT22;16247;50.840;4.382;2023-04-03T19:17:17;10.20;99.90
29207;DHT22;16247;50.840;4.382;2023-04-03T19:20:04;10.20;99.90
29207;DHT22;16247;50.840;4.382;2023-04-03T19:22:31;10.10;99.90
29207;DHT22;16247;50.840;4.382;2023-04-03T19:25:04;10.10;99.90
29207;DHT22;16247;50.840;4.382;2023-04-03T19:27:31;10.00;99.90
29207;DHT22;16247;50.840;4.382;2023-04-03T19:30:13;10.20;99.90
29207;DHT22;16247;50.840;4.382;2023-04-03T19:32:40;9.90;99.90
29207;DHT22;16247;50.840;4.382;2023-04-03T19:35:06;9.90;99.90
29207;DHT22;16247;50.840;4.382;2023-04-03T19:37:33;9.70;99.90
29207;DHT22;16247;50.840;4.382;2023-04-03T19:39:59;9.60;99.90
29207;DHT22;16247;50.840;4.382;2023-04-03T19:42:27;9.90;99.90
29207;DHT22;16247;50.840;4.382;2023-04-03T19:45:14;9.80;99.90
29207;DHT22;16247;50.840;4.382;2023-04-03T19:47:44;9.70;99.90
29207;DHT22;16247;50.840;4.382;2023-04-03T19:50:11;9.70;99.90
29207;DHT22;16247;50.840;4.382;2023-04-03T19:53:02;9.60;99.90
29207;DHT22;16247;50.840;4.382;2023-04-03T19:56:10;9.60;99.90
29207;DHT22;16247;50.840;4.382;2023-04-03T19:58:46;9.30;99.90
29207;DHT22;16247;50.840;4.382;2023-04-03T20:01:34;9.40;99.90
29207;DHT22;16247;50.840;4.382;2023-04-03T20:04:01;9.30;99.90
29207;DHT22;16247;50.840;4.382;2023-04-03T20:06:31;9.40;99.90
29207;DHT22;16247;50.840;4.382;2023-04-03T20:09:03;9.40;99.90
29207;DHT22;16247;50.840;4.382;2023-04-03T20:11:34;9.30;99.90
29207;DHT22;16247;50.840;4.382;2023-04-03T20:14:02;9.20;99.90
29207;DHT22;16247;50.840;4.382;2023-04-03T20:16:31;9.10;99.90
29207;DHT22;16247;50.840;4.382;2023-04-03T20:19:01;9.00;99.90
29207;DHT22;16247;50.840;4.382;2023-04-03T20:21:28;9.10;99.90
29207;DHT22;16247;50.840;4.382;2023-04-03T20:23:57;8.90;99.90
29207;DHT22;16247;50.840;4.382;2023-04-03T20:26:27;9.20;99.90
29207;DHT22;16247;50.840;4.382;2023-04-03T20:29:25;9.00;99.90
29207;DHT22;16247;50.840;4.382;2023-04-03T20:32:16;8.90;99.90
29207;DHT22;16247;50.840;4.382;2023-04-03T20:34:58;8.80;99.90
29207;DHT22;16247;50.840;4.382;2023-04-03T20:37:32;8.70;99.90
29207;DHT22;16247;50.840;4.382;2023-04-03T20:40:09;8.90;99.90
29207;DHT22;16247;50.840;4.382;2023-04-03T20:42:43;8.80;99.90
29207;DHT22;16247;50.840;4.382;2023-04-03T20:45:39;8.90;99.90
29207;DHT22;16247;50.840;4.382;2023-04-03T20:48:08;8.80;99.90
29207;DHT22;16247;50.840;4.382;2023-04-03T20:50:36;8.60;99.90
29207;DHT22;16247;50.840;4.382;2023-04-03T20:53:05;8.70;99.90
29207;DHT22;16247;50.840;4.382;2023-04-03T20:55:57;8.70;99.90
29207;DHT22;16247;50.840;4.382;2023-04-03T20:58:29;8.60;99.90
29207;DHT22;16247;50.840;4.382;2023-04-03T21:01:28;8.50;99.90
29207;DHT22;16247;50.840;4.382;2023-04-03T21:04:44;8.50;99.90
29207;DHT22;16247;50.840;4.382;2023-04-03T21:19:45;8.40;99.90
29207;DHT22;16247;50.840;4.382;2023-04-03T21:22:15;8.40;99.90
29207;DHT22;16247;50.840;4.382;2023-04-03T21:24:48;8.40;99.90
29207;DHT22;16247;50.840;4.382;2023-04-03T21:27:18;8.40;99.90
29207;DHT22;16247;50.840;4.382;2023-04-03T21:32:19;8.40;99.90
29207;DHT22;16247;50.840;4.382;2023-04-03T21:34:56;8.30;99.90
29207;DHT22;16247;50.840;4.382;2023-04-03T21:37:27;8.30;99.90
29207;DHT22;16247;50.840;4.382;2023-04-03T21:39:54;8.10;99.90
29207;DHT22;16247;50.840;4.382;2023-04-03T21:42:24;8.20;99.90
29207;DHT22;16247;50.840;4.382;2023-04-03T21:44:53;8.40;99.90
29207;DHT22;16247;50.840;4.382;2023-04-03T21:47:26;8.40;99.90
29207;DHT22;16247;50.840;4.382;2023-04-03T21:50:04;8.10;99.90
29207;DHT22;16247;50.840;4.382;2023-04-03T21:57:58;7.90;99.90
29207;DHT22;16247;50.840;4.382;2023-04-03T22:03:01;7.70;99.90
29207;DHT22;16247;50.840;4.382;2023-04-03T22:51:56;7.40;99.90
29207;DHT22;16247;50.840;4.382;2023-04-03T22:54:23;7.70;99.90
29207;DHT22;16247;50.840;4.382;2023-04-03T22:56:52;7.70;99.90
29207;DHT22;16247;50.840;4.382;2023-04-03T22:59:18;7.40;99.90
29207;DHT22;16247;50.840;4.382;2023-04-03T23:01:52;7.30;99.90
29207;DHT22;16247;50.840;4.382;2023-04-03T23:04:22;7.30;99.90
29207;DHT22;16247;50.840;4.382;2023-04-03T23:06:56;7.30;99.90
29207;DHT22;16247;50.840;4.382;2023-04-03T23:09:27;7.20;99.90
29207;DHT22;16247;50.840;4.382;2023-04-03T23:14:39;7.00;99.90
29207;DHT22;16247;50.840;4.382;2023-04-03T23:17:16;7.10;99.90
29207;DHT22;16247;50.840;4.382;2023-04-03T23:19:48;7.00;99.90
29207;DHT22;16247;50.840;4.382;2023-04-03T23:22:50;7.00;99.90
29207;DHT22;16247;50.840;4.382;2023-04-03T23:25:37;6.90;99.90
29207;DHT22;16247;50.840;4.382;2023-04-03T23:28:42;7.10;99.90
